Saintfield, United Kingdom
Current Conditions -  °F | °C
As of 9:20 PM on Sunday 19 Oct 2014 (Local Time) from EGAC Reporting Station
Few Clouds Few Clouds  
Wind Chill: 54°   Ceiling: Unl
Heat Index: 54°   Visibility: 6mi
Dew Point: 48°   Wind: 9mph
Humidity: 82%   Direction: 240°WSW
Pressure: 29.77"   Gusts: NA
Location:  54.46°N, 5.83°W
Report Text: EGAC 192020Z 24008KT 9999 FEW018 12/09 Q1008
Loading
Personal Weather Stations






























Interactive Weather Map
Tropical Storm Tracking
New forecast layout! Learn more

10-Day Weather Forecast

Advertisements
Track Severe Weather on mobile